createdAt,value
2022-11-15T00:02:08.536Z,11.2
2022-11-15T00:05:10.379Z,11.3
2022-11-15T00:08:12.376Z,12.4
2022-11-15T00:11:14.307Z,14.8
2022-11-15T00:14:16.267Z,14.2
2022-11-15T00:17:18.312Z,15.7
2022-11-15T00:20:20.283Z,13.9
2022-11-15T00:23:22.242Z,14
2022-11-15T00:26:24.208Z,16.5
2022-11-15T00:29:26.281Z,15.2
2022-11-15T00:32:28.174Z,17.7
2022-11-15T00:35:30.149Z,15.7
2022-11-15T00:38:32.105Z,16
2022-11-15T00:41:34.074Z,16.3
2022-11-15T00:44:36.053Z,16.4
2022-11-15T00:47:37.995Z,15
2022-11-15T00:50:39.963Z,15
2022-11-15T00:53:41.926Z,12.7
2022-11-15T00:56:43.899Z,17.2
2022-11-15T00:59:45.892Z,16.7
2022-11-15T01:02:47.829Z,15.4
2022-11-15T01:05:49.815Z,15.4
2022-11-15T01:08:51.757Z,15.7
2022-11-15T01:11:53.797Z,13.3
2022-11-15T01:14:55.775Z,15.9
2022-11-15T01:17:57.750Z,12.3
2022-11-15T01:20:59.701Z,16.6
2022-11-15T01:24:01.665Z,13.4
2022-11-15T01:27:03.617Z,13.3
2022-11-15T01:30:05.578Z,13.4
2022-11-15T01:33:07.594Z,13
2022-11-15T01:36:09.573Z,11.9
2022-11-15T01:39:11.538Z,12.9
2022-11-15T01:42:13.517Z,13.9
2022-11-15T01:45:15.463Z,14.1
2022-11-15T01:48:17.439Z,13.5
2022-11-15T01:51:19.403Z,12.4
2022-11-15T01:54:21.389Z,13.2
2022-11-15T01:57:23.350Z,11.1
2022-11-15T02:00:25.341Z,13.6
2022-11-15T02:03:27.281Z,15.9
2022-11-15T02:06:29.262Z,13.9
2022-11-15T02:09:31.232Z,13.1
2022-11-15T02:12:33.196Z,15.9
2022-11-15T02:15:35.164Z,14.3
2022-11-15T02:18:37.116Z,13.7
2022-11-15T02:21:39.125Z,11.7
2022-11-15T02:24:41.103Z,15
2022-11-15T02:27:43.064Z,10.8
2022-11-15T02:30:45.023Z,13
2022-11-15T02:33:46.988Z,11.8
2022-11-15T02:36:48.937Z,9.4
2022-11-15T02:39:50.899Z,11.6
2022-11-15T02:42:52.871Z,12.5
2022-11-15T02:45:54.839Z,10.9
2022-11-15T02:48:56.804Z,13.9
2022-11-15T02:51:58.762Z,12.3
2022-11-15T02:55:00.767Z,10.7
2022-11-15T02:58:02.697Z,11.4
2022-11-15T03:01:04.736Z,15.2
2022-11-15T03:04:06.616Z,12.6
2022-11-15T03:07:08.615Z,9.6
2022-11-15T03:10:10.517Z,11
2022-11-15T03:13:12.512Z,10.7
2022-11-15T03:16:14.468Z,9.6
2022-11-15T03:19:16.434Z,10.3
2022-11-15T03:22:18.386Z,10.7
2022-11-15T03:25:20.357Z,10.5
2022-11-15T03:28:22.343Z,10.4
2022-11-15T03:31:24.291Z,10.8
2022-11-15T03:34:26.238Z,12.3
2022-11-15T03:37:28.248Z,9
2022-11-15T03:40:30.157Z,10.6
2022-11-15T03:43:32.302Z,10.9
2022-11-15T03:46:34.094Z,9.7
2022-11-15T03:49:36.057Z,10.9
2022-11-15T03:52:38.003Z,11.7
2022-11-15T03:55:39.972Z,10.6
2022-11-15T03:58:41.930Z,8.8
2022-11-15T04:01:43.895Z,10.3
2022-11-15T04:04:45.866Z,10.8
2022-11-15T04:07:47.842Z,9.2
2022-11-15T04:10:49.795Z,10.4
2022-11-15T04:13:51.770Z,10.8
2022-11-15T04:16:53.713Z,12.3
2022-11-15T04:19:55.670Z,11.2
2022-11-15T04:22:57.640Z,10
2022-11-15T04:25:59.579Z,10.9
2022-11-15T04:29:01.552Z,12.2
2022-11-15T04:32:03.515Z,10.4
2022-11-15T04:35:05.483Z,11.3
2022-11-15T04:38:07.550Z,10.8
2022-11-15T04:41:09.417Z,10.9
2022-11-15T04:44:11.391Z,10.2
2022-11-15T04:47:13.349Z,9.7
2022-11-15T04:50:15.322Z,10.3
2022-11-15T04:53:17.280Z,10.1
2022-11-15T04:56:19.235Z,9.4
2022-11-15T04:59:21.194Z,8.9
2022-11-15T05:02:23.174Z,10.6
2022-11-15T05:05:25.124Z,13
2022-11-15T05:08:27.091Z,9.4
2022-11-15T05:11:29.063Z,8.5
2022-11-15T05:14:31.014Z,10.5
2022-11-15T05:17:32.991Z,10.7
2022-11-15T05:20:34.977Z,7.8
2022-11-15T05:23:36.928Z,8.5
2022-11-15T05:26:38.893Z,9.8
2022-11-15T05:29:40.865Z,8.8
2022-11-15T05:32:42.832Z,8.5
2022-11-15T05:35:44.788Z,9.2
2022-11-15T05:38:46.749Z,7.5
2022-11-15T05:41:48.716Z,8.2
2022-11-15T05:44:50.848Z,11.6
2022-11-15T05:47:52.673Z,9.7
2022-11-15T05:50:54.657Z,9.1
2022-11-15T05:53:56.601Z,8.8
2022-11-15T05:56:58.555Z,7.9
2022-11-15T06:00:00.527Z,8.7
2022-11-15T06:03:02.488Z,7.8
2022-11-15T06:06:04.440Z,9.5
2022-11-15T06:09:06.411Z,9.4
2022-11-15T06:12:08.366Z,8.4
2022-11-15T06:15:10.327Z,7.7
2022-11-15T06:18:12.286Z,9.3
2022-11-15T06:21:14.269Z,6.5
2022-11-15T06:24:16.218Z,6.8
2022-11-15T06:27:18.177Z,8.5
2022-11-15T06:30:20.159Z,6.7
2022-11-15T06:33:22.160Z,8.1
2022-11-15T06:36:24.089Z,6.9
2022-11-15T06:39:26.051Z,7.6
2022-11-15T06:42:27.992Z,9.9
2022-11-15T06:45:29.966Z,5.7
2022-11-15T06:48:31.920Z,7.6
2022-11-15T06:51:33.912Z,7.3
2022-11-15T06:54:35.853Z,10.8
2022-11-15T06:57:40.913Z,10.7
2022-11-15T07:00:42.872Z,12.1
2022-11-15T07:03:44.832Z,15.2
2022-11-15T07:06:46.898Z,10.8
2022-11-15T07:09:48.823Z,8
2022-11-15T07:12:50.930Z,11.9
2022-11-15T07:15:52.745Z,9
2022-11-15T07:18:54.689Z,9.6
2022-11-15T07:21:56.651Z,8.6
2022-11-15T07:24:58.606Z,9.3
2022-11-15T07:28:00.567Z,8.7
2022-11-15T07:31:02.545Z,7.7
2022-11-15T07:34:04.515Z,10.4
2022-11-15T07:37:06.472Z,8.2
2022-11-15T07:40:08.436Z,7.8
2022-11-15T07:43:10.392Z,11.8
2022-11-15T07:46:12.350Z,9.1
2022-11-15T07:49:14.308Z,9
2022-11-15T07:52:19.143Z,11.3
2022-11-15T07:55:21.088Z,10.6
2022-11-15T07:58:23.052Z,11.3
2022-11-15T08:01:25.136Z,10.3
2022-11-15T08:04:26.975Z,11.9
2022-11-15T08:07:29.065Z,11.8
2022-11-15T08:10:30.909Z,11.2
2022-11-15T08:13:33.228Z,11.3
2022-11-15T08:16:34.840Z,10.8
2022-11-15T08:19:36.809Z,11.2
2022-11-15T08:22:38.777Z,12.1
2022-11-15T08:25:40.724Z,10.5
2022-11-15T08:28:42.686Z,11.7
2022-11-15T08:31:44.652Z,8.8
2022-11-15T08:34:46.616Z,9.9
2022-11-15T08:37:48.573Z,7.9
2022-11-15T08:40:50.532Z,10.1
2022-11-15T08:43:52.491Z,9.1
2022-11-15T08:46:54.454Z,15.3
2022-11-15T08:49:56.424Z,10.2
2022-11-15T08:52:58.420Z,9.1
2022-11-15T08:56:00.360Z,12.4
2022-11-15T08:59:02.317Z,11.4
2022-11-15T09:02:04.328Z,10.2
2022-11-15T09:05:06.237Z,8.2
2022-11-15T09:08:25.453Z,10.7
2022-11-15T09:11:10.178Z,12.1
2022-11-15T09:14:12.185Z,10.2
2022-11-15T09:17:14.168Z,8
2022-11-15T09:20:16.131Z,7.7
2022-11-15T09:23:18.085Z,7.5
2022-11-15T09:26:20.035Z,9.8
2022-11-15T09:29:22.009Z,12
2022-11-15T09:32:23.983Z,8.1
2022-11-15T09:35:26.013Z,15.4
2022-11-15T09:38:27.959Z,10.2
2022-11-15T09:41:29.872Z,7.3
2022-11-15T09:44:31.823Z,9.6
2022-11-15T09:47:33.781Z,9.6
2022-11-15T09:50:35.785Z,6.9
2022-11-15T09:54:13.935Z,6.3
2022-11-15T09:56:39.710Z,9.3
2022-11-15T09:59:41.678Z,6.4
2022-11-15T10:02:43.628Z,9.5
2022-11-15T10:05:45.573Z,7.7
2022-11-15T10:08:47.542Z,6.8
2022-11-15T10:11:49.500Z,7.4
2022-11-15T10:14:54.288Z,5.9
2022-11-15T10:17:53.420Z,8.7
2022-11-15T10:20:55.392Z,7.1
2022-11-15T10:23:57.348Z,7.7
2022-11-15T10:26:59.332Z,7.9
2022-11-15T10:30:01.292Z,9.8
2022-11-15T10:33:03.256Z,8.6
2022-11-15T10:36:05.228Z,7.4
2022-11-15T10:39:07.265Z,7.5
2022-11-15T10:42:11.909Z,12.5
2022-11-15T10:45:11.129Z,10.5
2022-11-15T10:48:13.071Z,8.6
2022-11-15T10:51:15.045Z,7
2022-11-15T10:54:20.026Z,6.6
2022-11-15T10:57:19.020Z,7.6
2022-11-15T11:00:21.086Z,7.2
2022-11-15T11:03:23.029Z,7.3
2022-11-15T11:06:24.978Z,8.2
2022-11-15T11:09:26.982Z,6.3
2022-11-15T11:12:28.915Z,6.1
2022-11-15T11:15:30.888Z,5.5
2022-11-15T11:18:33.091Z,8.1
2022-11-15T11:21:39.724Z,7.8
2022-11-15T11:24:36.816Z,7.3
2022-11-15T11:27:38.725Z,6
2022-11-15T11:30:40.701Z,6.4
2022-11-15T11:33:42.639Z,7.3
2022-11-15T11:36:44.603Z,5.1
2022-11-15T11:39:46.570Z,5.8
2022-11-15T11:42:48.521Z,5.9
2022-11-15T11:45:50.485Z,8.2
2022-11-15T11:48:52.443Z,4.2
2022-11-15T11:51:54.408Z,5.1
2022-11-15T11:54:56.379Z,5.9
2022-11-15T11:57:58.361Z,5.3
2022-11-15T12:01:00.301Z,5.6
2022-11-15T12:04:02.268Z,9.1
2022-11-15T12:07:04.250Z,6.4
2022-11-15T12:10:06.242Z,5.7
2022-11-15T12:13:08.201Z,6.1
2022-11-15T12:16:10.557Z,6
2022-11-15T12:19:12.111Z,4.7
2022-11-15T12:22:14.086Z,5.3
2022-11-15T12:25:16.029Z,5.1
2022-11-15T12:28:18.008Z,5
2022-11-15T12:31:19.964Z,4.2
2022-11-15T12:34:21.964Z,5.5
2022-11-15T12:37:23.891Z,5.2
2022-11-15T12:40:25.854Z,4.2
2022-11-15T12:43:27.808Z,4.3
2022-11-15T12:46:29.784Z,4.1
2022-11-15T12:49:31.741Z,3.4
2022-11-15T12:52:33.697Z,3.8
2022-11-15T12:55:35.677Z,4.7
2022-11-15T12:58:37.649Z,4.2
2022-11-15T13:01:39.625Z,3.9
2022-11-15T13:04:41.525Z,5.1
2022-11-15T13:07:43.491Z,5.5
2022-11-15T13:10:45.456Z,4.4
2022-11-15T13:13:47.407Z,3.3
2022-11-15T13:16:49.363Z,5.2
2022-11-15T13:19:51.386Z,4
2022-11-15T13:22:53.328Z,4.7
2022-11-15T13:25:55.281Z,3.9
2022-11-15T13:28:57.230Z,4
2022-11-15T13:31:59.209Z,3.9
2022-11-15T13:35:01.165Z,2.7
2022-11-15T13:38:03.125Z,3.2
2022-11-15T13:41:05.099Z,4.4
2022-11-15T13:44:07.054Z,4.9
2022-11-15T13:47:09.012Z,5.5
2022-11-15T13:50:12.351Z,6.4
2022-11-15T13:53:12.948Z,7.3
2022-11-15T13:56:14.913Z,5
2022-11-15T13:59:16.890Z,4.9
2022-11-15T14:02:19.036Z,4.7
2022-11-15T14:05:20.793Z,3.6
2022-11-15T14:08:22.811Z,4.3
2022-11-15T14:11:24.760Z,4.1
2022-11-15T14:14:26.724Z,2.3
2022-11-15T14:17:28.860Z,3.4
2022-11-15T14:20:30.754Z,1.8
2022-11-15T14:23:32.737Z,2.1
2022-11-15T14:26:34.709Z,3.9
2022-11-15T14:29:36.683Z,1.9
2022-11-15T14:32:38.621Z,3.1
2022-11-15T14:35:40.597Z,2.7
2022-11-15T14:38:42.584Z,1.8
2022-11-15T14:41:44.548Z,2.3
2022-11-15T14:44:46.551Z,2.1
2022-11-15T14:47:48.474Z,3
2022-11-15T14:50:50.441Z,1.6
2022-11-15T14:53:52.383Z,3.3
2022-11-15T14:56:54.368Z,2
2022-11-15T14:59:56.359Z,2.2
2022-11-15T15:02:58.300Z,1.3
2022-11-15T15:06:00.279Z,1.4
2022-11-15T15:09:02.231Z,1.9
2022-11-15T15:12:06.403Z,2
2022-11-15T15:15:06.175Z,3.3
2022-11-15T15:18:08.131Z,2.7
2022-11-15T15:21:10.082Z,4.4
2022-11-15T15:24:12.054Z,3.5
2022-11-15T15:27:14.136Z,3.2
2022-11-15T15:30:15.991Z,4.1
2022-11-15T15:33:17.954Z,4.4
2022-11-15T15:36:19.930Z,5.4
2022-11-15T15:39:21.875Z,7.4
2022-11-15T15:42:23.842Z,4.3
2022-11-15T15:45:25.822Z,7.3
2022-11-15T15:48:27.780Z,5.1
2022-11-15T15:51:29.756Z,4.6
2022-11-15T15:54:31.729Z,8.5
2022-11-15T15:57:33.687Z,6.7
2022-11-15T16:00:35.637Z,5.1
2022-11-15T16:03:37.610Z,3.9
2022-11-15T16:06:39.572Z,4.3
2022-11-15T16:09:41.519Z,3.9
2022-11-15T16:12:43.483Z,8
2022-11-15T16:15:45.440Z,4.7
2022-11-15T16:18:47.409Z,6.7
2022-11-15T16:21:49.369Z,5.8
2022-11-15T16:24:51.498Z,4.1
2022-11-15T16:27:53.323Z,5.2
2022-11-15T16:30:56.731Z,4.9
2022-11-15T16:33:57.359Z,4.5
2022-11-15T16:36:59.320Z,5.4
2022-11-15T16:40:01.530Z,5
2022-11-15T16:43:03.240Z,6.4
2022-11-15T16:46:05.204Z,6.5
2022-11-15T16:49:07.193Z,3.9
2022-11-15T16:52:09.136Z,5.1
2022-11-15T16:55:11.156Z,6.5
2022-11-15T16:58:13.118Z,5.3
2022-11-15T17:01:15.202Z,5.6
2022-11-15T17:04:17.061Z,4.1
2022-11-15T17:07:19.098Z,5.1
2022-11-15T17:10:21.089Z,4.9
2022-11-15T17:13:22.953Z,5.3
2022-11-15T17:16:24.924Z,5.1
2022-11-15T17:19:26.885Z,5.9
2022-11-15T17:22:28.858Z,5.8
2022-11-15T17:25:30.837Z,5.5
2022-11-15T17:28:33.021Z,5.1
2022-11-15T17:31:34.749Z,5.3
2022-11-15T17:34:46.992Z,5.8
2022-11-15T17:37:38.960Z,5.9
2022-11-15T17:40:40.913Z,5.6
2022-11-15T17:43:42.892Z,4.9
2022-11-15T17:46:44.839Z,5.2
2022-11-15T17:49:46.800Z,6
2022-11-15T17:52:48.753Z,6.5
2022-11-15T17:55:50.711Z,8.6
2022-11-15T17:58:52.659Z,7.8
2022-11-15T18:01:54.641Z,5.7
2022-11-15T18:04:56.616Z,7
2022-11-15T18:07:58.579Z,6.6
2022-11-15T18:11:00.546Z,7.8
2022-11-15T18:14:02.523Z,5.7
2022-11-15T18:17:04.466Z,7.6
2022-11-15T18:20:06.439Z,6.5
2022-11-15T18:23:08.396Z,6.6
2022-11-15T18:26:10.369Z,7.3
2022-11-15T18:29:12.341Z,7
2022-11-15T18:32:14.326Z,7.4
2022-11-15T18:35:16.269Z,5.9
2022-11-15T18:38:18.265Z,5.4
2022-11-15T18:41:20.210Z,6.8
2022-11-15T18:44:22.190Z,5.3
2022-11-15T18:47:24.145Z,7.5
2022-11-15T18:50:26.106Z,5.1
2022-11-15T18:53:29.783Z,5
2022-11-15T18:56:30.612Z,5.7
2022-11-15T18:59:32.566Z,4.8
2022-11-15T19:02:37.269Z,5.7
2022-11-15T19:05:39.234Z,6
2022-11-15T19:08:41.192Z,6.6
2022-11-15T19:11:43.157Z,8
2022-11-15T19:14:45.175Z,6
2022-11-15T19:17:47.145Z,5
2022-11-15T19:20:49.092Z,6.7
2022-11-15T19:23:51.072Z,5.3
2022-11-15T19:26:53.009Z,5.9
2022-11-15T19:29:54.986Z,6
2022-11-15T19:32:56.939Z,6.3
2022-11-15T19:35:58.900Z,5.3
2022-11-15T19:39:00.864Z,6.8
2022-11-15T19:42:02.835Z,7
2022-11-15T19:45:04.807Z,8
2022-11-15T19:48:06.766Z,5.1
2022-11-15T19:51:08.716Z,7
2022-11-15T19:54:10.878Z,7.5
2022-11-15T19:57:12.650Z,6
2022-11-15T20:00:14.600Z,6.2
2022-11-15T20:03:16.557Z,7.2
2022-11-15T20:06:18.519Z,5.8
2022-11-15T20:09:20.484Z,5.7
2022-11-15T20:12:22.436Z,9.2
2022-11-15T20:15:24.409Z,7.1
2022-11-15T20:18:26.383Z,7.3
2022-11-15T20:21:28.342Z,7
2022-11-15T20:24:30.302Z,6.4
2022-11-15T20:27:32.267Z,6.2
2022-11-15T20:30:34.245Z,7.1
2022-11-15T20:33:36.235Z,6.4
2022-11-15T20:36:40.170Z,8
2022-11-15T20:39:40.151Z,6.9
2022-11-15T20:42:42.124Z,8
2022-11-15T20:45:44.070Z,9.1
2022-11-15T20:48:46.036Z,7.7
2022-11-15T20:51:47.994Z,5.9
2022-11-15T20:54:50.096Z,7.3
2022-11-15T20:57:51.917Z,6.8
2022-11-15T21:00:53.927Z,6.8
2022-11-15T21:03:55.833Z,6.3
2022-11-15T21:06:57.852Z,7.2
2022-11-15T21:09:59.751Z,6.3
2022-11-15T21:13:01.710Z,7.2
2022-11-15T21:16:03.662Z,5.4
2022-11-15T21:19:05.777Z,7.9
2022-11-15T21:22:07.590Z,8.2
2022-11-15T21:25:09.550Z,7.4
2022-11-15T21:28:11.534Z,6.9
2022-11-15T21:31:13.486Z,7.2
2022-11-15T21:34:15.441Z,8.2
2022-11-15T21:37:17.415Z,7.6
2022-11-15T21:40:19.375Z,8.7
2022-11-15T21:43:21.354Z,7
2022-11-15T21:46:23.299Z,9.6
2022-11-15T21:49:25.274Z,8
2022-11-15T21:52:27.229Z,8
2022-11-15T21:55:29.195Z,8.5
2022-11-15T21:58:31.492Z,7.6
2022-11-15T22:01:33.194Z,7.5
2022-11-15T22:04:35.215Z,8.4
2022-11-15T22:07:37.199Z,7.8
2022-11-15T22:10:39.016Z,8.5
2022-11-15T22:13:40.977Z,7.8
2022-11-15T22:16:42.942Z,7.9
2022-11-15T22:19:52.466Z,6.4
2022-11-15T22:22:46.877Z,6.6
2022-11-15T22:25:48.850Z,6
2022-11-15T22:28:50.817Z,6.7
2022-11-15T22:31:52.745Z,8.5
2022-11-15T22:34:54.720Z,6.4
2022-11-15T22:37:56.670Z,5.9
2022-11-15T22:40:58.620Z,5.6
2022-11-15T22:44:00.584Z,5.1
2022-11-15T22:47:02.550Z,5.9
2022-11-15T22:50:04.511Z,6.3
2022-11-15T22:53:06.485Z,6.4
2022-11-15T22:56:08.444Z,8.3
2022-11-15T22:59:10.402Z,6.1
2022-11-15T23:02:12.376Z,6.5
2022-11-15T23:05:14.339Z,7.2
2022-11-15T23:08:16.313Z,7.4
2022-11-15T23:11:18.268Z,7
2022-11-15T23:14:20.237Z,6
2022-11-15T23:17:22.195Z,7
2022-11-15T23:20:42.264Z,6.6
2022-11-15T23:23:26.137Z,6.5
2022-11-15T23:26:28.089Z,8.4
2022-11-15T23:29:30.051Z,5.6
2022-11-15T23:32:32.006Z,6.2
2022-11-15T23:35:33.953Z,7.4
2022-11-15T23:38:36.034Z,7.5
2022-11-15T23:41:37.878Z,6.4
2022-11-15T23:44:39.830Z,7
2022-11-15T23:47:41.788Z,7.7
2022-11-15T23:50:43.783Z,9.1
2022-11-15T23:53:45.721Z,8.5
2022-11-15T23:56:47.689Z,8.6
2022-11-15T23:59:49.655Z,8.4
